Time;durP1;ratioP1;P1;durP2;ratioP2;P2;SDS_P1;SDS_P2;PMS_P1;PMS_P2;Temp;Humidity;BMP_temperature;BMP_pressure;BME280_temperature;BME280_humidity;BME280_pressure;Samples;Min_cycle;Max_cycle;Signal;HPM_P1;HPM_P2
2022/04/30 00:00:06;;;;;;;8.93;4.72;;;22.10;60.70;;;;;;5076408;28;20154;-70
2022/04/30 00:02:42;;;;;;;6.75;4.50;;;22.20;60.70;;;;;;5076478;28;20051;-70
2022/04/30 00:05:09;;;;;;;5.70;4.32;;;22.20;60.60;;;;;;5076459;28;20552;-70
2022/04/30 00:07:36;;;;;;;8.35;5.47;;;22.20;60.50;;;;;;5076665;28;20467;-71
2022/04/30 00:10:03;;;;;;;7.95;4.93;;;22.30;60.60;;;;;;5076435;28;20037;-71
2022/04/30 00:12:31;;;;;;;11.30;4.07;;;22.20;60.50;;;;;;5076700;28;20045;-71
2022/04/30 00:14:59;;;;;;;8.68;5.10;;;22.10;60.60;;;;;;5076493;28;20101;-70
2022/04/30 00:17:25;;;;;;;6.65;5.10;;;22.10;60.60;;;;;;5076240;28;20051;-71
2022/04/30 00:19:51;;;;;;;9.70;5.03;;;22.30;60.80;;;;;;5076268;28;20040;-70
2022/04/30 00:22:17;;;;;;;7.28;4.50;;;22.00;60.50;;;;;;5076150;28;20049;-71
2022/04/30 00:24:45;;;;;;;6.28;4.80;;;22.10;60.60;;;;;;5076008;28;20056;-71
2022/04/30 00:27:11;;;;;;;10.88;4.78;;;22.10;60.60;;;;;;5076489;28;20037;-70
2022/04/30 00:29:37;;;;;;;10.50;5.32;;;22.20;60.70;;;;;;5075509;28;20041;-71
2022/04/30 00:32:04;;;;;;;6.88;5.63;;;22.00;60.60;;;;;;5075612;28;20059;-71
2022/04/30 00:34:31;;;;;;;8.40;5.13;;;22.00;60.50;;;;;;5076224;28;20047;-71
2022/04/30 00:37:02;;;;;;;6.18;4.72;;;22.00;60.50;;;;;;5075637;28;20061;-71
2022/04/30 00:39:30;;;;;;;9.40;5.90;;;22.10;60.60;;;;;;5076134;28;20136;-71
2022/04/30 00:41:56;;;;;;;6.32;4.82;;;22.10;60.50;;;;;;5075964;28;20049;-71
2022/04/30 00:44:23;;;;;;;8.88;4.82;;;22.10;60.40;;;;;;5076136;28;20037;-71
2022/04/30 00:46:49;;;;;;;6.90;5.40;;;22.10;60.30;;;;;;5075990;28;20056;-71
2022/04/30 00:49:15;;;;;;;7.57;4.68;;;22.00;60.10;;;;;;5075738;28;20044;-71
2022/04/30 00:51:46;;;;;;;7.03;4.88;;;22.00;60.20;;;;;;5075160;28;20049;-71
2022/04/30 00:54:18;;;;;;;6.78;4.50;;;22.00;60.10;;;;;;5075624;28;20048;-71
2022/04/30 00:56:51;;;;;;;6.77;5.20;;;22.10;60.20;;;;;;5076231;28;20106;-71
2022/04/30 00:59:17;;;;;;;;;;;22.00;60.10;;;;;;5075630;28;20339;-71
2022/04/30 01:01:45;;;;;;;6.72;4.15;;;22.00;60.20;;;;;;5075190;28;19913;-71
2022/04/30 01:04:13;;;;;;;7.38;4.40;;;21.90;60.10;;;;;;5075995;28;20037;-71
2022/04/30 01:06:51;;;;;;;9.70;4.05;;;21.90;60.20;;;;;;5075726;28;20041;-71
2022/04/30 01:09:20;;;;;;;7.50;4.57;;;21.90;60.30;;;;;;5078338;28;20044;-71
2022/04/30 01:11:54;;;;;;;8.13;4.65;;;22.00;60.40;;;;;;5079643;28;20040;-71
2022/04/30 01:14:21;;;;;;;6.03;4.60;;;21.90;60.40;;;;;;5079418;28;20092;-71
2022/04/30 01:16:47;;;;;;;4.72;4.20;;;21.90;60.20;;;;;;5079471;28;20045;-70
2022/04/30 01:19:21;;;;;;;9.40;4.88;;;21.90;60.20;;;;;;5079567;28;20037;-70
2022/04/30 01:21:57;;;;;;;6.80;4.95;;;21.90;60.10;;;;;;5079276;28;20041;-71
2022/04/30 01:24:25;;;;;;;5.38;4.70;;;22.10;60.20;;;;;;5078775;28;20033;-70
2022/04/30 01:26:53;;;;;;;6.07;4.38;;;22.00;60.00;;;;;;5079342;28;20052;-70
2022/04/30 01:29:21;;;;;;;6.55;4.15;;;22.00;59.90;;;;;;5079403;28;20065;-71
2022/04/30 01:37:27;;;;;;;7.20;4.65;;;21.90;60.00;;;;;;5079222;28;20037;-70
2022/04/30 01:39:57;;;;;;;5.93;5.07;;;21.80;59.90;;;;;;5079180;28;20033;-71
2022/04/30 01:42:29;;;;;;;5.32;4.47;;;21.90;60.00;;;;;;5078603;28;20049;-71
2022/04/30 01:44:55;;;;;;;5.78;4.32;;;21.80;59.90;;;;;;5061484;28;20059;-70
2022/04/30 01:47:23;;;;;;;6.72;4.70;;;21.70;60.00;;;;;;5079105;28;20060;-70
2022/04/30 01:49:49;;;;;;;6.53;4.25;;;21.80;60.00;;;;;;5078572;28;20041;-71
2022/04/30 01:52:16;;;;;;;7.82;4.93;;;21.90;60.10;;;;;;5078759;28;20047;-70
2022/04/30 01:54:43;;;;;;;6.55;4.88;;;21.70;59.90;;;;;;5078782;28;20101;-71
2022/04/30 01:57:10;;;;;;;6.00;4.78;;;21.80;60.00;;;;;;5078872;28;20074;-71
2022/04/30 01:59:36;;;;;;;5.97;4.80;;;21.80;60.00;;;;;;5077738;28;20051;-71
2022/04/30 02:02:04;;;;;;;4.35;3.95;;;21.70;60.00;;;;;;5077699;28;20055;-71
2022/04/30 02:04:33;;;;;;;5.32;4.25;;;21.70;60.00;;;;;;5078533;28;20037;-71
2022/04/30 02:07:01;;;;;;;6.00;4.80;;;21.70;60.00;;;;;;5078061;28;20037;-72
2022/04/30 02:09:29;;;;;;;6.55;5.15;;;21.60;60.00;;;;;;5077757;28;20045;-72
2022/04/30 02:11:59;;;;;;;4.55;3.72;;;21.60;60.00;;;;;;5078501;28;20037;-71
2022/04/30 02:14:32;;;;;;;5.07;4.25;;;21.60;60.00;;;;;;5078631;28;20070;-71
2022/04/30 02:17:01;;;;;;;7.40;4.80;;;21.60;60.20;;;;;;5078430;28;20055;-71
2022/04/30 02:20:18;;;;;;;4.78;4.13;;;21.60;60.30;;;;;;5077197;28;20065;-71
2022/04/30 02:22:17;;;;;;;5.05;3.78;;;21.70;60.70;;;;;;5078006;28;20036;-72
2022/04/30 02:24:45;;;;;;;6.85;4.72;;;21.60;60.70;;;;;;5077668;28;20065;-71
2022/04/30 02:27:13;;;;;;;8.02;4.63;;;21.60;60.80;;;;;;5078241;28;20071;-71
2022/04/30 02:29:39;;;;;;;4.75;4.30;;;21.60;60.80;;;;;;5077496;28;20032;-71
2022/04/30 02:32:05;;;;;;;6.78;4.30;;;21.70;60.80;;;;;;5077850;28;20127;-71
2022/04/30 02:34:35;;;;;;;7.10;4.78;;;21.60;60.60;;;;;;5077879;28;20095;-71
2022/04/30 02:37:03;;;;;;;5.82;4.50;;;21.70;60.60;;;;;;5078040;28;20102;-71
2022/04/30 02:39:30;;;;;;;6.50;4.80;;;21.70;60.50;;;;;;5077988;28;20059;-71
2022/04/30 02:41:56;;;;;;;8.45;4.93;;;21.60;60.50;;;;;;5077302;28;20060;-71
2022/04/30 02:44:26;;;;;;;7.43;5.35;;;21.70;60.60;;;;;;5077816;28;20041;-71
2022/04/30 02:46:55;;;;;;;8.55;4.82;;;21.70;60.60;;;;;;5077871;28;20041;-71
2022/04/30 02:49:22;;;;;;;6.63;5.10;;;21.70;60.50;;;;;;5077457;28;20043;-71
2022/04/30 02:51:49;;;;;;;7.93;5.40;;;21.80;60.50;;;;;;5077516;28;20053;-71
2022/04/30 02:54:15;;;;;;;5.82;4.95;;;21.90;60.60;;;;;;5077632;28;20041;-71
2022/04/30 02:56:42;;;;;;;8.65;5.15;;;21.90;60.60;;;;;;5077966;28;20036;-71
2022/04/30 03:01:54;;;;;;;8.40;5.03;;;21.80;60.40;;;;;;5076900;28;20053;-71
2022/04/30 03:04:33;;;;;;;10.05;4.90;;;22.00;60.50;;;;;;5077020;28;20043;-71
2022/04/30 03:06:59;;;;;;;6.28;4.65;;;21.80;60.40;;;;;;5077412;28;20190;-71
2022/04/30 03:09:25;;;;;;;5.68;4.75;;;22.00;60.50;;;;;;5077576;28;20053;-71
2022/04/30 03:11:51;;;;;;;5.25;4.28;;;21.90;60.50;;;;;;5077307;28;20045;-71
2022/04/30 03:14:17;;;;;;;6.75;4.45;;;21.80;60.20;;;;;;5060147;28;20067;-71
2022/04/30 03:22:13;;;;;;;6.47;4.35;;;21.90;60.40;;;;;;5077050;28;20049;-71
2022/04/30 03:24:39;;;;;;;4.40;4.00;;;21.90;60.40;;;;;;5077050;28;20072;-71
2022/04/30 03:27:06;;;;;;;4.13;3.72;;;21.90;60.30;;;;;;5077077;28;20052;-71
2022/04/30 03:29:32;;;;;;;4.72;3.55;;;22.00;60.30;;;;;;5077189;28;20064;-71
2022/04/30 03:31:58;;;;;;;4.63;3.50;;;21.90;60.20;;;;;;5076158;28;20060;-71
2022/04/30 03:34:28;;;;;;;5.15;3.90;;;21.90;60.40;;;;;;5076773;28;20083;-71
2022/04/30 03:36:54;;;;;;;5.30;3.28;;;22.00;60.50;;;;;;5077169;28;20056;-71
2022/04/30 03:39:20;;;;;;;5.18;3.80;;;21.90;60.40;;;;;;5076988;28;20045;-72
2022/04/30 03:41:46;;;;;;;2.95;2.75;;;21.90;60.40;;;;;;5076465;28;20072;-71
2022/04/30 03:44:14;;;;;;;3.35;2.67;;;21.80;60.20;;;;;;5076324;28;20047;-71
2022/04/30 03:46:40;;;;;;;3.22;2.47;;;21.90;60.30;;;;;;5076890;28;20041;-71
2022/04/30 03:49:06;;;;;;;2.97;2.67;;;22.00;60.20;;;;;;5109559;28;20044;-71
2022/04/30 03:51:32;;;;;;;3.63;2.97;;;21.90;60.10;;;;;;5076644;28;20104;-71
2022/04/30 03:53:58;;;;;;;2.70;2.50;;;22.00;60.00;;;;;;5075759;28;20041;-71
2022/04/30 03:56:24;;;;;;;3.03;2.42;;;21.90;60.00;;;;;;5076157;28;20037;-72
2022/04/30 03:58:51;;;;;;;2.50;2.35;;;21.80;60.00;;;;;;5076746;28;20044;-71
2022/04/30 04:01:18;;;;;;;2.97;2.70;;;21.90;60.10;;;;;;5075514;28;20044;-71
2022/04/30 04:03:45;;;;;;;3.97;2.70;;;21.90;60.00;;;;;;5075905;28;20060;-71
2022/04/30 04:06:13;;;;;;;3.38;2.65;;;21.90;60.00;;;;;;5075944;28;20060;-71
2022/04/30 04:08:40;;;;;;;3.45;3.15;;;21.90;60.20;;;;;;5075630;28;20037;-71
2022/04/30 04:11:10;;;;;;;2.92;2.58;;;21.80;60.10;;;;;;5075927;28;20079;-71
2022/04/30 04:19:09;;;;;;;3.72;3.30;;;22.00;60.20;;;;;;5075823;28;20052;-70
2022/04/30 04:21:35;;;;;;;4.90;3.50;;;22.10;59.70;;;;;;5075859;28;20068;-70
2022/04/30 04:26:48;;;;;;;3.97;3.05;;;22.40;59.40;;;;;;5074757;28;20104;-70
2022/04/30 04:29:16;;;;;;;4.45;3.00;;;22.50;59.00;;;;;;5074601;28;20037;-70
2022/04/30 04:31:45;;;;;;;4.13;3.13;;;22.60;58.80;;;;;;5074848;28;20075;-70
2022/04/30 04:34:11;;;;;;;3.25;2.95;;;22.60;59.00;;;;;;5074612;28;20033;-70
2022/04/30 04:36:39;;;;;;;2.13;1.80;;;22.50;58.90;;;;;;5075680;28;20045;-70
2022/04/30 04:39:13;;;;;;;2.95;2.33;;;22.50;58.80;;;;;;5075494;28;20096;-70
2022/04/30 04:41:44;;;;;;;3.42;2.90;;;22.60;58.80;;;;;;5074492;28;20091;-70
2022/04/30 04:44:11;;;;;;;2.85;2.65;;;22.60;58.60;;;;;;5077586;28;20044;-70
2022/04/30 04:46:38;;;;;;;2.97;2.55;;;22.70;58.60;;;;;;5061323;28;20044;-69
2022/04/30 04:49:06;;;;;;;5.05;3.75;;;22.70;58.50;;;;;;5079489;28;20104;-70
2022/04/30 04:51:36;;;;;;;2.65;2.10;;;22.80;58.30;;;;;;5077190;28;20044;-73
2022/04/30 04:54:03;;;;;;;3.35;2.75;;;22.80;58.10;;;;;;5070267;28;20041;-70
2022/04/30 04:56:30;;;;;;;6.70;3.10;;;22.80;57.70;;;;;;5079547;28;20037;-69
2022/04/30 04:58:56;;;;;;;3.05;2.63;;;22.80;57.00;;;;;;5062015;28;20048;-69
2022/04/30 05:01:22;;;;;;;5.55;3.08;;;23.00;56.80;;;;;;5079097;28;20105;-70
2022/04/30 05:03:48;;;;;;;3.20;2.63;;;23.00;56.40;;;;;;5060179;28;20063;-70
2022/04/30 05:06:15;;;;;;;3.00;2.47;;;23.00;56.00;;;;;;5059271;28;20037;-69
2022/04/30 05:08:41;;;;;;;2.75;2.55;;;23.00;55.60;;;;;;5059134;28;20072;-69
2022/04/30 05:11:07;;;;;;;4.60;2.90;;;23.00;55.20;;;;;;5059249;28;20034;-69
2022/04/30 05:13:33;;;;;;;4.60;3.00;;;23.00;54.90;;;;;;5073003;28;20104;-69
2022/04/30 05:16:00;;;;;;;3.70;3.10;;;23.10;54.80;;;;;;5078856;28;20094;-69
2022/04/30 05:18:26;;;;;;;6.40;3.65;;;23.00;54.50;;;;;;5071861;28;20065;-70
2022/04/30 05:20:53;;;;;;;8.48;3.50;;;23.10;54.10;;;;;;5078023;28;20045;-69
2022/04/30 05:23:19;;;;;;;3.78;2.97;;;22.90;50.60;;;;;;5075293;28;20045;-68
2022/04/30 05:25:45;;;;;;;4.25;3.33;;;22.70;50.00;;;;;;5078415;28;20096;-68
2022/04/30 05:28:12;;;;;;;5.90;3.40;;;22.90;49.70;;;;;;5075899;28;20104;-68
2022/04/30 05:30:38;;;;;;;3.92;2.97;;;22.70;49.50;;;;;;5078459;28;20044;-68
2022/04/30 05:33:05;;;;;;;3.90;2.65;;;22.80;49.00;;;;;;5072946;28;20128;-68
2022/04/30 05:35:31;;;;;;;2.53;2.33;;;22.80;48.80;;;;;;5078002;28;20044;-68
2022/04/30 05:37:57;;;;;;;4.13;3.13;;;22.90;48.70;;;;;;5074996;28;20045;-70
2022/04/30 05:40:24;;;;;;;2.50;2.30;;;22.80;49.70;;;;;;5077753;28;20063;-71
2022/04/30 05:42:50;;;;;;;3.67;2.67;;;23.00;48.90;;;;;;5075168;28;20051;-70
2022/04/30 05:45:16;;;;;;;4.45;2.95;;;23.00;50.80;;;;;;5075053;28;20044;-71
2022/04/30 05:47:42;;;;;;;3.85;3.45;;;23.10;51.70;;;;;;5074767;28;20038;-70
2022/04/30 05:50:09;;;;;;;4.15;3.22;;;23.10;47.80;;;;;;5077725;28;20044;-70
2022/04/30 05:52:35;;;;;;;2.78;2.53;;;23.00;49.00;;;;;;5078339;28;20112;-70
2022/04/30 05:55:03;;;;;;;3.95;2.80;;;23.10;46.70;;;;;;5061021;28;20045;-71
2022/04/30 05:57:30;;;;;;;4.68;3.30;;;23.10;47.90;;;;;;5072842;28;20052;-71
2022/04/30 05:59:56;;;;;;;3.00;2.22;;;23.20;47.30;;;;;;5078258;28;20056;-71
2022/04/30 06:02:22;;;;;;;2.75;2.53;;;23.20;47.40;;;;;;5077860;28;20064;-70
2022/04/30 06:04:49;;;;;;;5.03;3.88;;;23.20;47.70;;;;;;5058086;28;20057;-71
2022/04/30 06:07:16;;;;;;;5.28;4.05;;;23.20;54.80;;;;;;5067505;28;20067;-69
2022/04/30 06:09:42;;;;;;;4.40;3.88;;;23.20;55.50;;;;;;5077210;28;20029;-68
2022/04/30 06:12:09;;;;;;;4.88;3.65;;;23.20;55.70;;;;;;5077122;28;20056;-69
2022/04/30 06:14:35;;;;;;;4.30;3.90;;;23.10;57.00;;;;;;5076164;28;20420;-69
2022/04/30 06:17:01;;;;;;;4.88;3.60;;;23.00;57.20;;;;;;5077495;28;20049;-70
2022/04/30 06:19:27;;;;;;;4.25;3.85;;;23.00;57.60;;;;;;5066124;28;20033;-69
2022/04/30 06:21:54;;;;;;;3.63;2.85;;;22.90;57.70;;;;;;5061924;28;20037;-67
2022/04/30 06:24:20;;;;;;;6.85;3.78;;;23.00;57.90;;;;;;5048429;28;20033;-68
2022/04/30 06:26:46;;;;;;;6.15;3.50;;;23.00;57.10;;;;;;5057917;28;20037;-68
2022/04/30 06:29:12;;;;;;;5.00;4.05;;;23.10;55.60;;;;;;5057711;28;20059;-67
2022/04/30 06:31:39;;;;;;;7.38;3.95;;;23.10;54.70;;;;;;5057746;28;20041;-67
2022/04/30 06:34:05;;;;;;;5.15;3.72;;;23.10;54.60;;;;;;5057264;28;20042;-67
2022/04/30 06:36:31;;;;;;;5.13;3.35;;;23.10;54.00;;;;;;5067339;28;20040;-68
2022/04/30 06:38:57;;;;;;;4.65;3.53;;;23.20;53.60;;;;;;5077539;28;20045;-68
2022/04/30 06:41:23;;;;;;;3.85;3.00;;;23.20;53.40;;;;;;5069214;28;20050;-68
2022/04/30 06:43:51;;;;;;;6.50;3.72;;;23.30;53.30;;;;;;5077116;28;20049;-68
2022/04/30 06:46:17;;;;;;;5.28;3.90;;;23.20;53.00;;;;;;5075433;28;20041;-70
2022/04/30 06:48:46;;;;;;;3.67;3.22;;;23.30;51.90;;;;;;5070507;28;20049;-69
2022/04/30 06:51:13;;;;;;;4.80;3.60;;;23.20;51.60;;;;;;5056882;28;20060;-69
2022/04/30 06:59:12;;;;;;;5.38;3.90;;;23.20;51.60;;;;;;5077079;28;20052;-70
2022/04/30 07:01:52;;;;;;;5.00;3.50;;;23.20;51.70;;;;;;5077198;28;20044;-68
2022/04/30 07:04:19;;;;;;;8.07;4.10;;;23.20;52.10;;;;;;5061330;28;20048;-70
2022/04/30 07:06:47;;;;;;;4.20;3.50;;;23.20;52.20;;;;;;5062357;28;20040;-69
2022/04/30 07:09:13;;;;;;;6.68;4.75;;;23.40;52.10;;;;;;5065161;28;20064;-69
2022/04/30 07:11:39;;;;;;;5.57;3.95;;;23.10;52.30;;;;;;5056690;28;20042;-69
2022/04/30 07:14:06;;;;;;;6.00;4.45;;;23.30;52.60;;;;;;5063582;28;20037;-69
2022/04/30 07:16:32;;;;;;;4.53;3.85;;;23.30;52.80;;;;;;5071866;28;20040;-69
2022/04/30 07:19:01;;;;;;;6.38;3.63;;;23.20;52.90;;;;;;5063554;28;20067;-69
2022/04/30 07:21:28;;;;;;;4.53;4.05;;;23.30;53.10;;;;;;5076843;28;20047;-70
2022/04/30 07:23:55;;;;;;;6.97;3.65;;;23.20;53.20;;;;;;5076397;28;20053;-70
2022/04/30 07:26:21;;;;;;;4.30;3.63;;;23.20;53.40;;;;;;5074755;28;20068;-70
2022/04/30 07:28:47;;;;;;;4.10;3.35;;;23.30;53.60;;;;;;5075797;28;20052;-69
2022/04/30 07:31:13;;;;;;;3.75;2.90;;;23.20;53.60;;;;;;5076596;28;20048;-69
2022/04/30 07:33:39;;;;;;;5.40;2.95;;;23.20;53.60;;;;;;5071518;28;20045;-70
2022/04/30 07:36:06;;;;;;;4.55;3.58;;;23.30;53.80;;;;;;5056018;28;20045;-72
2022/04/30 07:38:32;;;;;;;4.55;2.65;;;23.30;53.50;;;;;;5065076;28;20041;-71
2022/04/30 07:40:58;;;;;;;3.95;2.42;;;23.30;53.60;;;;;;5070424;28;20052;-73
2022/04/30 07:43:24;;;;;;;2.83;2.38;;;23.20;53.20;;;;;;5076204;28;20048;-71
2022/04/30 07:45:51;;;;;;;4.75;2.17;;;23.30;52.70;;;;;;5075301;28;20056;-72
2022/04/30 07:48:19;;;;;;;3.33;1.98;;;23.20;52.20;;;;;;5074530;28;20077;-74
2022/04/30 07:50:45;;;;;;;5.65;2.50;;;23.30;51.90;;;;;;5052520;28;20045;-72
2022/04/30 07:53:15;;;;;;;2.85;2.35;;;23.20;51.30;;;;;;5062603;28;20061;-75
2022/04/30 07:55:45;;;;;;;2.30;2.00;;;23.30;50.80;;;;;;5075696;28;20041;-75
2022/04/30 07:58:11;;;;;;;5.07;1.60;;;23.30;51.10;;;;;;5075204;28;20033;-74
2022/04/30 08:00:37;;;;;;;2.95;1.83;;;23.20;50.60;;;;;;5072652;28;20048;-72
2022/04/30 08:03:06;;;;;;;2.15;1.80;;;23.20;51.20;;;;;;5068469;28;20051;-70
2022/04/30 08:05:34;;;;;;;3.38;1.85;;;23.30;53.00;;;;;;5060374;28;20075;-69
2022/04/30 08:08:00;;;;;;;3.65;1.73;;;23.30;52.60;;;;;;5055935;28;20105;-70
2022/04/30 08:10:26;;;;;;;1.77;1.50;;;23.30;52.10;;;;;;5056077;28;20045;-71
2022/04/30 08:12:56;;;;;;;1.50;1.40;;;23.30;51.30;;;;;;5070141;28;20045;-72
2022/04/30 08:15:26;;;;;;;2.22;2.03;;;23.20;50.90;;;;;;5074759;28;20047;-71
2022/04/30 08:17:53;;;;;;;2.65;1.30;;;23.20;50.60;;;;;;5056278;28;20045;-71
2022/04/30 08:20:20;;;;;;;3.15;1.13;;;23.30;50.50;;;;;;5058846;28;20140;-71
2022/04/30 08:22:46;;;;;;;1.50;1.38;;;23.20;50.30;;;;;;5075655;28;20048;-72
2022/04/30 08:25:12;;;;;;;3.10;1.38;;;23.30;50.40;;;;;;5064878;28;20060;-71
2022/04/30 08:27:38;;;;;;;2.15;1.40;;;23.30;50.40;;;;;;5054724;28;20041;-72
2022/04/30 08:30:05;;;;;;;2.08;1.63;;;23.30;50.60;;;;;;5064460;28;20280;-71
2022/04/30 08:32:32;;;;;;;2.65;1.30;;;23.30;50.60;;;;;;5061286;28;20037;-72
2022/04/30 08:35:00;;;;;;;2.28;1.80;;;23.30;50.70;;;;;;5067385;28;20052;-71
2022/04/30 08:37:26;;;;;;;2.88;1.88;;;23.30;49.50;;;;;;5055173;28;20045;-71
2022/04/30 08:39:52;;;;;;;2.17;1.65;;;23.30;50.80;;;;;;5054343;28;20083;-71
2022/04/30 08:42:19;;;;;;;2.10;1.73;;;23.30;51.10;;;;;;5070284;28;20048;-71
2022/04/30 08:44:46;;;;;;;4.97;1.30;;;23.30;51.30;;;;;;5073665;28;20045;-70
2022/04/30 08:47:13;;;;;;;2.25;1.17;;;23.40;51.30;;;;;;5068292;28;20038;-71
2022/04/30 08:49:41;;;;;;;4.07;1.33;;;23.30;50.10;;;;;;5075424;28;20063;-70
2022/04/30 08:52:15;;;;;;;2.45;1.70;;;23.30;50.80;;;;;;5075514;28;20049;-71
2022/04/30 08:54:42;;;;;;;1.35;1.25;;;23.40;51.40;;;;;;5063130;28;20045;-71
2022/04/30 08:57:08;;;;;;;2.58;1.20;;;23.20;51.50;;;;;;5073823;28;20045;-70
2022/04/30 08:59:35;;;;;;;1.92;1.63;;;23.40;51.70;;;;;;5075461;28;20080;-70
2022/04/30 09:02:02;;;;;;;1.67;1.58;;;23.30;44.40;;;;;;5073552;28;20048;-70
2022/04/30 09:04:44;;;;;;;1.40;1.30;;;23.20;49.50;;;;;;5070222;28;20037;-71
2022/04/30 09:07:16;;;;;;;1.95;1.23;;;23.30;50.50;;;;;;5074738;28;20037;-70
2022/04/30 09:09:42;;;;;;;4.47;1.30;;;23.30;47.90;;;;;;5074572;28;20058;-70
2022/04/30 09:12:13;;;;;;;2.33;1.40;;;23.40;48.40;;;;;;5072704;28;20049;-70
2022/04/30 09:14:42;;;;;;;2.03;1.42;;;23.50;51.60;;;;;;5073024;28;20063;-70
2022/04/30 09:17:08;;;;;;;1.75;1.40;;;23.30;52.10;;;;;;5059028;28;20109;-70
2022/04/30 09:19:49;;;;;;;4.10;1.52;;;23.40;52.10;;;;;;5054009;28;20037;-70
2022/04/30 09:22:16;;;;;;;2.10;1.60;;;23.50;52.00;;;;;;5054862;28;20061;-70
2022/04/30 09:24:48;;;;;;;3.47;2.47;;;23.40;51.40;;;;;;5077156;28;20072;-70
2022/04/30 09:27:15;;;;;;;4.57;1.27;;;23.50;52.40;;;;;;5075221;28;20049;-70
2022/04/30 09:29:41;;;;;;;2.72;1.55;;;23.40;52.40;;;;;;5076493;28;20068;-71
2022/04/30 09:32:08;;;;;;;1.90;1.48;;;23.50;48.70;;;;;;5067803;28;20060;-70
2022/04/30 09:37:42;;;;;;;1.42;1.33;;;23.50;52.50;;;;;;5074874;28;20489;-70
2022/04/30 09:40:14;;;;;;;1.52;1.13;;;23.50;49.30;;;;;;5058472;28;20065;-70
2022/04/30 09:42:41;;;;;;;1.50;1.40;;;23.50;52.20;;;;;;5071601;28;20041;-71
2022/04/30 09:45:08;;;;;;;1.67;1.10;;;23.40;52.40;;;;;;5078318;28;20333;-70
2022/04/30 09:47:35;;;;;;;2.97;2.05;;;23.50;51.60;;;;;;5064217;28;20096;-70
2022/04/30 09:55:34;;;;;;;1.50;1.40;;;23.30;47.80;;;;;;5078366;28;20049;-70
2022/04/30 09:58:04;;;;;;;3.60;1.42;;;23.30;52.40;;;;;;5078390;28;20045;-70
2022/04/30 10:00:33;;;;;;;1.48;1.20;;;23.30;52.90;;;;;;5077651;28;20041;-71
2022/04/30 10:03:03;;;;;;;1.85;1.27;;;23.30;53.00;;;;;;5061924;28;20049;-70
2022/04/30 10:05:32;;;;;;;3.22;1.80;;;23.50;50.90;;;;;;5069210;28;20044;-71
2022/04/30 10:08:00;;;;;;;2.47;1.70;;;23.40;52.90;;;;;;5078032;28;20092;-70
2022/04/30 10:10:41;;;;;;;2.67;1.65;;;23.30;52.90;;;;;;5078232;28;20051;-70
2022/04/30 10:13:21;;;;;;;2.05;1.42;;;23.40;53.00;;;;;;5075826;28;20053;-70
2022/04/30 10:15:53;;;;;;;1.85;1.65;;;23.50;53.00;;;;;;5077845;28;20049;-68
2022/04/30 10:18:24;;;;;;;1.23;1.13;;;23.50;50.30;;;;;;5076968;28;20109;-68
2022/04/30 10:20:51;;;;;;;3.85;0.90;;;23.50;55.40;;;;;;5066279;28;20055;-68
2022/04/30 10:23:17;;;;;;;2.38;0.85;;;23.60;57.50;;;;;;5058051;28;20076;-68
2022/04/30 10:25:48;;;;;;;2.35;1.23;;;23.80;56.50;;;;;;5060511;28;20033;-69
2022/04/30 10:28:17;;;;;;;6.43;1.13;;;24.00;56.50;;;;;;5057621;28;20041;-69
2022/04/30 10:30:46;;;;;;;1.45;1.35;;;24.00;57.10;;;;;;5059850;28;20064;-69
2022/04/30 10:33:12;;;;;;;1.33;1.23;;;24.10;57.10;;;;;;5068804;28;20048;-69
2022/04/30 10:35:40;;;;;;;1.23;1.20;;;24.30;58.50;;;;;;5077267;28;20041;-68
2022/04/30 10:38:10;;;;;;;6.85;1.33;;;24.30;60.20;;;;;;5074362;28;20045;-67
2022/04/30 10:40:38;;;;;;;7.53;4.03;;;24.50;67.60;;;;;;5060740;28;20136;-67
2022/04/30 10:43:31;;;;;;;3.50;2.20;;;24.40;54.70;;;;;;5063162;28;20037;-69
2022/04/30 10:45:59;;;;;;;2.63;1.35;;;24.30;47.30;;;;;;5067541;28;20099;-67
2022/04/30 10:48:26;;;;;;;4.63;2.00;;;24.10;46.70;;;;;;5067468;28;20064;-67
2022/04/30 10:51:03;;;;;;;2.00;1.67;;;24.20;48.60;;;;;;5071651;28;20037;-68
2022/04/30 10:53:30;;;;;;;1.67;1.45;;;24.10;49.50;;;;;;5075125;28;20045;-68
2022/04/30 10:55:57;;;;;;;1.48;1.20;;;24.10;52.80;;;;;;5069735;28;20083;-68
2022/04/30 10:58:24;;;;;;;1.70;1.60;;;24.30;52.90;;;;;;5076938;28;20041;-70
2022/04/30 11:00:51;;;;;;;1.63;1.45;;;24.20;53.00;;;;;;5072750;28;20055;-70
2022/04/30 11:03:18;;;;;;;1.55;1.30;;;24.10;53.20;;;;;;5061628;28;20052;-69
2022/04/30 11:05:48;;;;;;;1.52;1.40;;;24.20;53.40;;;;;;5056731;28;20045;-69
2022/04/30 11:08:15;;;;;;;5.43;1.55;;;24.20;54.00;;;;;;5057032;28;20067;-70
2022/04/30 11:10:52;;;;;;;2.25;1.45;;;24.20;54.20;;;;;;5061774;28;20041;-69
2022/04/30 11:13:18;;;;;;;3.67;2.33;;;24.20;54.50;;;;;;5068787;28;20072;-69
2022/04/30 11:15:46;;;;;;;2.38;1.45;;;24.20;54.40;;;;;;5070358;28;20055;-69
2022/04/30 11:18:13;;;;;;;1.80;1.48;;;24.20;54.70;;;;;;5074148;28;20045;-68
2022/04/30 11:20:40;;;;;;;3.28;1.83;;;24.10;55.00;;;;;;5062064;28;20053;-69
2022/04/30 11:23:06;;;;;;;1.58;1.40;;;24.20;55.20;;;;;;5056847;28;20056;-68
2022/04/30 11:25:37;;;;;;;1.58;1.48;;;24.10;55.30;;;;;;5067574;28;20100;-69
2022/04/30 11:28:08;;;;;;;1.73;1.50;;;24.10;52.00;;;;;;5064377;28;20130;-70
2022/04/30 11:30:42;;;;;;;2.10;1.65;;;24.10;55.20;;;;;;5073505;28;20041;-69
2022/04/30 11:33:09;;;;;;;2.15;1.77;;;24.00;53.50;;;;;;5072576;28;20055;-69
2022/04/30 11:35:36;;;;;;;0.60;0.60;;;24.00;54.40;;;;;;5076520;28;20044;-68
2022/04/30 11:38:07;;;;;;;1.25;1.13;;;24.10;55.90;;;;;;5063529;28;20067;-69
2022/04/30 11:40:33;;;;;;;1.42;1.33;;;24.00;55.60;;;;;;5072537;28;20049;-69
2022/04/30 11:43:01;;;;;;;1.98;1.40;;;24.00;55.00;;;;;;5066632;28;20068;-68
2022/04/30 11:45:30;;;;;;;2.63;1.63;;;23.90;55.50;;;;;;5058007;28;20101;-69
2022/04/30 11:48:00;;;;;;;1.58;1.35;;;23.90;55.90;;;;;;5066407;28;20076;-68
2022/04/30 11:50:27;;;;;;;1.60;1.50;;;24.00;56.40;;;;;;5056351;28;20037;-68
2022/04/30 11:52:54;;;;;;;1.30;1.20;;;23.90;56.10;;;;;;5055885;28;20064;-68
2022/04/30 11:55:21;;;;;;;2.53;1.90;;;23.90;56.40;;;;;;5056751;28;20052;-68
2022/04/30 11:57:48;;;;;;;2.15;1.38;;;23.90;56.50;;;;;;5063709;28;20041;-69
2022/04/30 12:00:19;;;;;;;3.00;1.85;;;23.90;55.90;;;;;;5062031;28;20033;-67
2022/04/30 12:02:47;;;;;;;2.38;1.70;;;24.00;56.10;;;;;;5064257;28;20044;-69
2022/04/30 12:05:14;;;;;;;2.05;1.38;;;23.90;55.90;;;;;;5069838;28;20100;-69
2022/04/30 12:07:42;;;;;;;3.22;1.95;;;24.00;55.90;;;;;;5066286;28;20037;-69
2022/04/30 12:10:20;;;;;;;1.33;1.17;;;23.90;54.10;;;;;;5060914;28;20059;-69
2022/04/30 12:12:47;;;;;;;2.53;1.50;;;23.90;55.80;;;;;;5064176;28;20046;-69
2022/04/30 12:15:25;;;;;;;1.73;1.60;;;23.80;56.90;;;;;;5074761;28;20049;-69
2022/04/30 12:27:01;;;;;;;2.03;1.50;;;23.80;55.50;;;;;;5061101;28;20037;-70
2022/04/30 12:29:30;;;;;;;1.25;1.15;;;23.90;55.50;;;;;;5066328;28;20037;-70
2022/04/30 12:32:02;;;;;;;1.90;1.20;;;23.90;55.40;;;;;;5070945;28;20056;-70
2022/04/30 12:34:30;;;;;;;1.95;1.65;;;23.80;53.40;;;;;;5073137;28;20037;-69
2022/04/30 12:36:58;;;;;;;1.48;1.30;;;24.00;55.80;;;;;;5076838;28;20045;-70
2022/04/30 12:39:25;;;;;;;3.15;1.50;;;23.80;54.30;;;;;;5075675;28;20064;-69
2022/04/30 12:41:53;;;;;;;1.52;1.42;;;23.90;55.80;;;;;;5072869;28;20041;-70
2022/04/30 12:44:20;;;;;;;1.20;1.10;;;23.80;52.80;;;;;;5074687;28;20033;-70
2022/04/30 12:46:48;;;;;;;1.30;1.00;;;23.80;53.80;;;;;;5062841;28;20038;-70
2022/04/30 12:49:15;;;;;;;2.55;1.10;;;23.80;53.40;;;;;;5074201;28;20044;-70
2022/04/30 12:51:42;;;;;;;1.10;1.00;;;24.00;54.10;;;;;;5068022;28;20045;-70
2022/04/30 12:54:12;;;;;;;1.30;1.13;;;23.80;52.80;;;;;;5068696;28;20056;-70
2022/04/30 12:56:39;;;;;;;1.10;1.05;;;23.80;52.90;;;;;;5074323;28;20100;-70
2022/04/30 12:59:06;;;;;;;2.83;1.48;;;23.80;50.90;;;;;;5062982;28;20041;-69
2022/04/30 13:01:34;;;;;;;1.35;1.25;;;23.80;52.20;;;;;;5064091;28;20068;-70
2022/04/30 13:04:01;;;;;;;1.42;1.13;;;23.80;48.70;;;;;;5055040;28;20057;-70
2022/04/30 13:06:29;;;;;;;1.58;1.45;;;23.80;53.40;;;;;;5058989;28;20038;-70
2022/04/30 13:14:26;;;;;;;1.90;1.52;;;23.70;49.90;;;;;;5074637;28;20048;-70
2022/04/30 13:16:53;;;;;;;2.13;1.77;;;23.80;54.10;;;;;;5063995;28;20038;-69
2022/04/30 13:19:19;;;;;;;3.90;2.28;;;23.90;53.70;;;;;;5058285;28;20100;-70
2022/04/30 13:21:46;;;;;;;2.00;1.52;;;23.80;53.60;;;;;;5060833;28;20071;-70
2022/04/30 13:24:14;;;;;;;1.40;1.30;;;23.80;55.40;;;;;;5074200;28;20045;-70
2022/04/30 13:26:41;;;;;;;1.55;1.45;;;23.80;55.10;;;;;;5076752;28;20044;-70
2022/04/30 13:29:10;;;;;;;2.63;1.65;;;23.80;54.40;;;;;;5077342;28;20047;-70
2022/04/30 13:31:43;;;;;;;2.28;1.73;;;23.80;53.10;;;;;;5075043;28;20041;-70
2022/04/30 13:34:09;;;;;;;2.90;2.15;;;23.80;49.50;;;;;;5073644;28;20056;-70
2022/04/30 13:36:37;;;;;;;3.03;1.70;;;23.70;52.70;;;;;;5078374;28;20039;-70
2022/04/30 13:39:04;;;;;;;3.53;2.40;;;23.60;52.40;;;;;;5076342;28;20064;-70
2022/04/30 13:41:30;;;;;;;3.58;2.53;;;23.60;53.40;;;;;;5077405;28;20051;-70